createdAt,value
2018-12-14T00:01:18.667Z,11.23
2018-12-14T00:03:51.009Z,10.57
2018-12-14T00:06:23.229Z,10.87
2018-12-14T00:08:53.264Z,10.90
2018-12-14T00:11:23.363Z,11.27
2018-12-14T00:13:53.660Z,10.60
2018-12-14T00:16:23.704Z,10.33
2018-12-14T00:18:53.716Z,10.47
2018-12-14T00:21:23.867Z,10.30
2018-12-14T00:23:53.998Z,10.47
2018-12-14T00:26:24.135Z,10.30
2018-12-14T00:28:54.221Z,10.93
2018-12-14T00:31:25.324Z,9.10
2018-12-14T00:33:55.545Z,10.20
2018-12-14T00:36:25.428Z,9.53
2018-12-14T00:38:55.794Z,10.17
2018-12-14T00:41:26.023Z,10.07
2018-12-14T00:43:56.272Z,9.33
2018-12-14T00:46:27.337Z,9.27
2018-12-14T00:48:57.360Z,10.20
2018-12-14T00:51:27.439Z,9.57
2018-12-14T00:53:57.500Z,9.37
2018-12-14T00:56:27.647Z,9.23
2018-12-14T00:58:57.829Z,9.13
2018-12-14T01:01:27.802Z,8.90
2018-12-14T01:03:57.788Z,9.53
2018-12-14T01:06:27.982Z,8.83
2018-12-14T01:08:58.026Z,9.40
2018-12-14T01:11:28.213Z,9.37
2018-12-14T01:13:58.193Z,9.33
2018-12-14T01:16:28.216Z,9.50
2018-12-14T01:18:58.331Z,8.83
2018-12-14T01:21:28.536Z,8.57
2018-12-14T01:23:58.615Z,8.47
2018-12-14T01:26:28.737Z,8.97
2018-12-14T01:28:59.139Z,8.37
2018-12-14T01:31:29.380Z,8.70
2018-12-14T01:33:59.497Z,7.83
2018-12-14T01:36:29.587Z,8.13
2018-12-14T01:38:59.702Z,8.07
2018-12-14T01:41:29.758Z,7.93
2018-12-14T01:43:59.643Z,7.77
2018-12-14T01:46:29.940Z,7.33
2018-12-14T01:49:01.137Z,7.53
2018-12-14T01:51:31.470Z,8.00
2018-12-14T01:54:01.634Z,7.33
2018-12-14T01:56:33.644Z,7.60
2018-12-14T01:59:03.862Z,7.03
2018-12-14T02:01:34.132Z,7.20
2018-12-14T02:04:04.620Z,7.67
2018-12-14T02:06:34.741Z,7.00
2018-12-14T02:09:07.044Z,7.10
2018-12-14T02:11:39.167Z,7.43
2018-12-14T02:14:09.263Z,7.43
2018-12-14T02:16:39.455Z,7.20
2018-12-14T02:19:09.747Z,7.53
2018-12-14T02:21:39.902Z,7.80
2018-12-14T02:24:09.922Z,7.10
2018-12-14T02:26:40.097Z,7.67
2018-12-14T02:29:10.162Z,6.97
2018-12-14T02:31:40.247Z,6.43
2018-12-14T02:34:10.347Z,6.87
2018-12-14T02:36:40.242Z,7.60
2018-12-14T02:39:10.335Z,7.53
2018-12-14T02:41:40.608Z,7.30
2018-12-14T02:44:10.726Z,6.67
2018-12-14T02:46:41.050Z,7.17
2018-12-14T02:49:14.039Z,6.90
2018-12-14T02:51:44.062Z,7.20
2018-12-14T02:54:14.216Z,6.87
2018-12-14T02:56:44.307Z,6.57
2018-12-14T02:59:15.367Z,6.73
2018-12-14T03:01:45.609Z,7.07
2018-12-14T03:04:16.852Z,6.80
2018-12-14T03:06:47.020Z,6.63
2018-12-14T03:09:17.251Z,6.70
2018-12-14T03:11:47.361Z,7.00
2018-12-14T03:14:17.519Z,7.03
2018-12-14T03:16:47.907Z,6.27
2018-12-14T03:19:18.028Z,6.97
2018-12-14T03:21:48.142Z,7.10
2018-12-14T03:24:18.258Z,6.33
2018-12-14T03:26:48.376Z,6.23
2018-12-14T03:29:18.455Z,7.30
2018-12-14T03:31:48.609Z,7.00
2018-12-14T03:34:18.833Z,6.53
2018-12-14T03:36:48.899Z,6.87
2018-12-14T03:39:19.083Z,6.87
2018-12-14T03:41:49.054Z,6.83
2018-12-14T03:44:19.326Z,6.40
2018-12-14T03:46:49.500Z,7.37
2018-12-14T03:49:20.635Z,6.83
2018-12-14T03:51:50.710Z,7.17
2018-12-14T03:54:22.011Z,6.53
2018-12-14T03:56:53.953Z,8.60
2018-12-14T03:59:24.193Z,7.53
2018-12-14T04:01:54.207Z,6.40
2018-12-14T04:04:24.434Z,7.43
2018-12-14T04:06:54.545Z,7.50
2018-12-14T04:09:24.520Z,7.10
2018-12-14T04:11:54.583Z,7.37
2018-12-14T04:14:24.750Z,8.00
2018-12-14T04:16:54.894Z,8.40
2018-12-14T04:19:24.772Z,7.90
2018-12-14T04:21:54.835Z,7.57
2018-12-14T04:24:24.883Z,7.40
2018-12-14T04:26:54.943Z,8.23
2018-12-14T04:29:24.991Z,8.27
2018-12-14T04:31:55.111Z,7.07
2018-12-14T04:34:25.160Z,8.00
2018-12-14T04:36:55.169Z,7.83
2018-12-14T04:39:27.165Z,7.73
2018-12-14T04:41:57.152Z,7.73
2018-12-14T04:44:27.269Z,7.63
2018-12-14T04:46:57.876Z,7.20
2018-12-14T04:49:28.221Z,7.73
2018-12-14T04:51:58.390Z,8.13
2018-12-14T04:54:28.322Z,7.87
2018-12-14T04:56:58.681Z,7.97
2018-12-14T04:59:28.757Z,7.40
2018-12-14T05:01:58.837Z,7.07
2018-12-14T05:04:28.829Z,7.80
2018-12-14T05:06:58.931Z,7.03
2018-12-14T05:09:28.858Z,7.63
2018-12-14T05:11:58.988Z,7.30
2018-12-14T05:14:28.826Z,7.50
2018-12-14T05:16:58.873Z,8.27
2018-12-14T05:19:28.777Z,7.73
2018-12-14T05:21:59.256Z,7.80
2018-12-14T05:24:29.233Z,7.97
2018-12-14T05:26:59.583Z,8.20
2018-12-14T05:29:29.832Z,8.17
2018-12-14T05:32:00.099Z,7.73
2018-12-14T05:34:30.197Z,8.20
2018-12-14T05:37:00.450Z,8.53
2018-12-14T05:39:31.466Z,8.07
2018-12-14T05:42:01.613Z,8.13
2018-12-14T05:44:31.886Z,7.97
2018-12-14T05:47:03.806Z,8.30
2018-12-14T05:49:33.749Z,7.77
2018-12-14T05:52:05.788Z,8.47
2018-12-14T05:54:35.701Z,7.80
2018-12-14T05:57:05.962Z,8.20
2018-12-14T05:59:36.129Z,7.40
2018-12-14T06:02:06.151Z,7.67
2018-12-14T06:04:36.349Z,8.37
2018-12-14T06:07:06.314Z,8.20
2018-12-14T06:09:36.280Z,8.43
2018-12-14T06:12:06.879Z,7.73
2018-12-14T06:14:36.896Z,8.87
2018-12-14T06:17:06.953Z,8.37
2018-12-14T06:22:19.302Z,8.17
2018-12-14T06:24:49.097Z,8.10
2018-12-14T06:27:19.172Z,8.90
2018-12-14T06:29:49.110Z,8.33
2018-12-14T06:32:19.014Z,8.47
2018-12-14T06:34:49.000Z,8.77
2018-12-14T06:37:19.391Z,9.43
2018-12-14T06:39:49.350Z,9.00
2018-12-14T06:42:19.861Z,8.87
2018-12-14T06:44:49.930Z,8.47
2018-12-14T06:47:19.828Z,8.30
2018-12-14T06:49:49.797Z,8.17
2018-12-14T06:52:20.151Z,8.53
2018-12-14T06:54:50.135Z,8.67
2018-12-14T06:57:20.133Z,9.27
2018-12-14T06:59:49.968Z,8.53
2018-12-14T07:02:19.940Z,9.47
2018-12-14T07:04:49.819Z,8.97
2018-12-14T07:07:19.704Z,9.87
2018-12-14T07:09:49.741Z,9.47
2018-12-14T07:12:19.758Z,9.53
2018-12-14T07:14:49.910Z,9.60
2018-12-14T07:17:19.875Z,9.93
2018-12-14T07:19:49.865Z,10.23
2018-12-14T07:22:19.702Z,10.00
2018-12-14T07:24:49.808Z,10.90
2018-12-14T07:27:19.815Z,12.17
2018-12-14T07:29:49.806Z,10.90
2018-12-14T07:32:19.712Z,9.70
2018-12-14T07:34:49.511Z,10.17
2018-12-14T07:37:19.551Z,9.40
2018-12-14T07:39:49.455Z,9.83
2018-12-14T07:42:19.545Z,10.27
2018-12-14T07:44:49.780Z,9.73
2018-12-14T07:47:20.142Z,11.03
2018-12-14T07:49:50.139Z,10.77
2018-12-14T07:52:21.558Z,11.07
2018-12-14T07:54:51.738Z,11.33
2018-12-14T07:57:23.582Z,10.20
2018-12-14T07:59:53.709Z,10.70
2018-12-14T08:02:23.821Z,11.17
2018-12-14T08:04:54.296Z,10.87
2018-12-14T08:07:26.155Z,9.47
2018-12-14T08:09:56.631Z,10.73
2018-12-14T08:12:26.765Z,10.60
2018-12-14T08:14:58.219Z,10.30
2018-12-14T08:17:28.862Z,10.40
2018-12-14T08:19:59.203Z,10.37
2018-12-14T08:22:30.790Z,10.37
2018-12-14T08:25:00.821Z,11.20
2018-12-14T08:27:31.131Z,11.37
2018-12-14T08:30:01.438Z,10.00
2018-12-14T08:32:32.012Z,10.47
2018-12-14T08:35:02.881Z,10.63
2018-12-14T08:37:32.909Z,9.87
2018-12-14T08:40:02.857Z,10.83
2018-12-14T08:42:33.035Z,10.00
2018-12-14T08:45:03.482Z,10.50
2018-12-14T08:47:33.778Z,10.77
2018-12-14T08:50:04.520Z,11.27
2018-12-14T08:52:35.810Z,11.33
2018-12-14T08:55:06.424Z,11.10
2018-12-14T08:57:36.624Z,10.50
2018-12-14T09:00:07.700Z,10.70
2018-12-14T09:02:38.050Z,11.67
2018-12-14T09:05:09.990Z,11.03
2018-12-14T09:07:40.126Z,11.67
2018-12-14T09:10:11.322Z,11.43
2018-12-14T09:12:41.466Z,10.67
2018-12-14T09:15:13.327Z,10.37
2018-12-14T09:17:45.653Z,11.07
2018-12-14T09:20:18.107Z,10.63
2018-12-14T09:22:48.698Z,10.87
2018-12-14T09:25:20.182Z,10.27
2018-12-14T09:27:50.710Z,10.80
2018-12-14T09:30:20.765Z,10.77
2018-12-14T09:32:51.830Z,10.90
2018-12-14T09:35:21.892Z,10.37
2018-12-14T09:37:52.113Z,10.50
2018-12-14T09:40:22.319Z,10.13
2018-12-14T09:42:52.376Z,10.83
2018-12-14T09:45:22.385Z,10.67
2018-12-14T09:47:52.594Z,10.27
2018-12-14T09:50:22.813Z,10.37
2018-12-14T09:52:52.955Z,10.87
2018-12-14T09:55:22.996Z,10.60
2018-12-14T09:57:55.064Z,10.13
2018-12-14T10:00:25.136Z,11.00
2018-12-14T10:02:55.104Z,11.00
2018-12-14T10:05:25.170Z,10.43
2018-12-14T10:07:55.179Z,10.80
2018-12-14T10:10:25.057Z,10.30
2018-12-14T10:12:55.067Z,10.03
2018-12-14T10:15:25.234Z,11.40
2018-12-14T10:17:55.229Z,11.23
2018-12-14T10:20:25.293Z,11.07
2018-12-14T10:22:55.283Z,11.50
2018-12-14T10:25:25.292Z,11.83
2018-12-14T10:27:55.273Z,11.53
2018-12-14T10:30:25.548Z,11.23
2018-12-14T10:32:56.527Z,12.20
2018-12-14T10:35:26.662Z,11.63
2018-12-14T10:37:56.635Z,11.17
2018-12-14T10:40:26.868Z,11.43
2018-12-14T10:42:56.821Z,10.90
2018-12-14T10:45:27.909Z,12.40
2018-12-14T10:47:57.944Z,10.80
2018-12-14T10:50:34.396Z,11.37
2018-12-14T10:53:01.925Z,11.50
2018-12-14T10:55:31.915Z,11.20
2018-12-14T10:58:02.152Z,11.53
2018-12-14T11:00:37.327Z,11.40
2018-12-14T11:03:07.376Z,11.60
2018-12-14T11:05:37.507Z,11.47
2018-12-14T11:08:07.715Z,11.77
2018-12-14T11:10:37.713Z,11.60
2018-12-14T11:13:09.511Z,11.23
2018-12-14T11:15:39.443Z,12.13
2018-12-14T11:18:09.444Z,12.47
2018-12-14T11:20:39.439Z,13.17
2018-12-14T11:23:09.485Z,14.17
2018-12-14T11:25:39.475Z,14.53
2018-12-14T11:28:09.650Z,13.67
2018-12-14T11:30:39.670Z,14.80
2018-12-14T11:33:09.631Z,15.60
2018-12-14T11:35:39.792Z,15.77
2018-12-14T11:38:09.962Z,15.20
2018-12-14T11:40:40.111Z,14.57
2018-12-14T11:43:10.184Z,15.87
2018-12-14T11:45:40.218Z,15.23
2018-12-14T11:48:10.194Z,15.73
2018-12-14T11:50:40.282Z,14.77
2018-12-14T11:53:12.392Z,15.03
2018-12-14T11:55:42.400Z,14.90
2018-12-14T11:58:12.425Z,15.13
2018-12-14T12:00:42.427Z,15.40
2018-12-14T12:03:12.523Z,15.60
2018-12-14T12:05:42.495Z,14.93
2018-12-14T12:08:14.119Z,15.43
2018-12-14T12:10:44.002Z,15.17
2018-12-14T12:13:14.021Z,15.23
2018-12-14T12:15:43.954Z,14.80
2018-12-14T12:18:13.943Z,14.93
2018-12-14T12:20:43.966Z,14.37
2018-12-14T12:23:13.903Z,15.43
2018-12-14T12:25:44.116Z,14.70
2018-12-14T12:28:14.040Z,14.97
2018-12-14T12:30:43.891Z,14.93
2018-12-14T12:33:14.647Z,14.50
2018-12-14T12:35:45.680Z,14.93
2018-12-14T12:38:15.798Z,14.43
2018-12-14T12:40:45.806Z,14.67
2018-12-14T12:48:46.329Z,13.73
2018-12-14T12:51:16.888Z,13.63
2018-12-14T12:53:47.379Z,14.50
2018-12-14T12:56:17.901Z,12.57
2018-12-14T12:58:55.989Z,13.57
2018-12-14T13:01:35.061Z,13.50
2018-12-14T13:04:12.338Z,13.17
2018-12-14T13:06:45.683Z,14.13
2018-12-14T13:09:22.497Z,14.27
2018-12-14T13:15:00.142Z,12.73
2018-12-14T13:17:30.120Z,13.40
2018-12-14T13:20:00.101Z,13.03
2018-12-14T13:22:31.830Z,13.13
2018-12-14T13:25:02.230Z,13.80
2018-12-14T13:27:32.421Z,13.33
2018-12-14T13:30:10.114Z,12.90
2018-12-14T13:32:40.014Z,13.07
2018-12-14T13:35:11.821Z,13.37
2018-12-14T13:37:43.650Z,13.03
2018-12-14T13:40:15.411Z,14.63
2018-12-14T13:45:57.855Z,13.17
2018-12-14T13:48:34.416Z,14.77
2018-12-14T13:51:06.244Z,13.47
2018-12-14T13:53:36.158Z,14.03
2018-12-14T13:56:06.172Z,14.23
2018-12-14T13:58:38.151Z,13.50
2018-12-14T14:01:07.429Z,14.03
2018-12-14T14:03:42.705Z,14.63
2018-12-14T14:06:12.606Z,14.10
2018-12-14T14:08:42.629Z,14.83
2018-12-14T14:11:12.577Z,12.87
2018-12-14T14:13:42.600Z,14.00
2018-12-14T14:16:12.563Z,13.53
2018-12-14T14:18:42.561Z,14.27
2018-12-14T14:23:57.019Z,13.60
2018-12-14T14:26:27.479Z,14.87
2018-12-14T14:28:59.029Z,13.90
2018-12-14T14:31:30.389Z,13.73
2018-12-14T14:34:00.617Z,13.63
2018-12-14T14:36:30.894Z,14.30
2018-12-14T14:39:02.752Z,14.67
2018-12-14T14:41:33.747Z,13.60
2018-12-14T14:44:03.955Z,14.00
2018-12-14T14:46:33.826Z,14.03
2018-12-14T14:49:03.991Z,13.30
2018-12-14T14:51:34.104Z,13.67
2018-12-14T14:54:04.109Z,13.50
2018-12-14T14:56:34.106Z,14.33
2018-12-14T14:59:04.214Z,13.70
2018-12-14T15:01:34.195Z,13.27
2018-12-14T15:04:04.931Z,12.93
2018-12-14T15:06:34.914Z,13.53
2018-12-14T15:09:06.817Z,12.37
2018-12-14T15:11:38.047Z,13.63
2018-12-14T15:14:08.161Z,13.83
2018-12-14T15:16:38.152Z,13.53
2018-12-14T15:19:08.230Z,13.63
2018-12-14T15:21:38.878Z,13.80
2018-12-14T15:24:09.041Z,12.83
2018-12-14T15:26:38.909Z,13.03
2018-12-14T15:29:08.958Z,12.70
2018-12-14T15:31:39.227Z,13.13
2018-12-14T15:34:14.353Z,12.90
2018-12-14T15:36:43.150Z,13.30
2018-12-14T15:39:14.219Z,12.27
2018-12-14T15:41:44.442Z,12.13
2018-12-14T15:44:14.435Z,12.50
2018-12-14T15:46:44.625Z,12.20
2018-12-14T15:49:14.637Z,12.80
2018-12-14T15:51:44.604Z,12.33
2018-12-14T15:54:14.577Z,13.40
2018-12-14T15:56:44.745Z,13.23
2018-12-14T15:59:14.930Z,12.73
2018-12-14T16:01:44.925Z,12.63
2018-12-14T16:04:15.037Z,13.13
2018-12-14T16:06:45.425Z,11.93
2018-12-14T16:09:15.523Z,11.97
2018-12-14T16:11:45.480Z,12.23
2018-12-14T16:14:15.800Z,12.30
2018-12-14T16:16:45.752Z,12.77
2018-12-14T16:19:15.976Z,12.23
2018-12-14T16:21:46.049Z,12.33
2018-12-14T16:24:16.068Z,12.77
2018-12-14T16:26:46.172Z,12.53
2018-12-14T16:29:16.113Z,12.67
2018-12-14T16:31:47.122Z,12.63
2018-12-14T16:34:17.140Z,13.00
2018-12-14T16:36:47.135Z,13.93
2018-12-14T16:39:17.070Z,13.33
2018-12-14T16:41:47.089Z,13.53
2018-12-14T16:44:17.084Z,12.87
2018-12-14T16:46:48.464Z,13.50
2018-12-14T16:49:18.421Z,14.17
2018-12-14T16:51:48.488Z,13.90
2018-12-14T16:54:18.466Z,13.40
2018-12-14T16:56:48.460Z,13.67
2018-12-14T16:59:18.324Z,13.87
2018-12-14T17:01:48.463Z,13.67
2018-12-14T17:04:18.490Z,14.80
2018-12-14T17:06:48.622Z,13.00
2018-12-14T17:09:18.751Z,14.17
2018-12-14T17:11:48.905Z,15.00
2018-12-14T17:14:19.845Z,13.73
2018-12-14T17:16:49.941Z,13.90
2018-12-14T17:19:20.421Z,13.17
2018-12-14T17:21:50.623Z,13.83
2018-12-14T17:24:20.603Z,14.43
2018-12-14T17:26:50.637Z,14.20
2018-12-14T17:29:20.730Z,14.17
2018-12-14T17:31:52.858Z,14.20
2018-12-14T17:34:23.014Z,14.27
2018-12-14T17:36:52.991Z,14.87
2018-12-14T17:39:25.237Z,15.27
2018-12-14T17:41:55.552Z,14.63
2018-12-14T17:44:25.453Z,15.23
2018-12-14T17:46:56.152Z,16.17
2018-12-14T17:49:26.357Z,15.87
2018-12-14T17:51:56.645Z,15.33
2018-12-14T17:54:26.666Z,15.57
2018-12-14T17:56:56.796Z,15.97
2018-12-14T17:59:26.746Z,15.50
2018-12-14T18:01:56.972Z,16.37
2018-12-14T18:04:26.952Z,15.10
2018-12-14T18:06:56.968Z,15.23
2018-12-14T18:09:26.975Z,14.93
2018-12-14T18:11:57.120Z,16.57
2018-12-14T18:14:27.134Z,16.67
2018-12-14T18:16:57.171Z,17.23
2018-12-14T18:19:27.204Z,16.07
2018-12-14T18:21:57.433Z,16.87
2018-12-14T18:24:27.463Z,16.97
2018-12-14T18:26:57.468Z,16.40
2018-12-14T18:29:27.594Z,17.47
2018-12-14T18:31:57.609Z,16.80
2018-12-14T18:34:27.538Z,16.47
2018-12-14T18:36:57.681Z,16.67
2018-12-14T18:39:27.639Z,17.17
2018-12-14T18:41:57.781Z,16.13
2018-12-14T18:44:27.849Z,18.23
2018-12-14T18:46:57.878Z,16.80
2018-12-14T18:49:27.983Z,17.47
2018-12-14T18:51:58.098Z,15.13
2018-12-14T18:54:28.185Z,18.80
2018-12-14T18:56:58.246Z,18.40
2018-12-14T18:59:28.817Z,18.00
2018-12-14T19:01:58.981Z,17.97
2018-12-14T19:04:29.162Z,18.30
2018-12-14T19:06:59.519Z,17.80
2018-12-14T19:09:29.708Z,19.03
2018-12-14T19:12:00.798Z,18.13
2018-12-14T19:14:32.653Z,18.80
2018-12-14T19:17:02.863Z,19.00
2018-12-14T19:19:32.954Z,19.10
2018-12-14T19:22:02.910Z,19.50
2018-12-14T19:24:33.149Z,19.83
2018-12-14T19:27:03.184Z,20.33
2018-12-14T19:29:33.226Z,19.93
2018-12-14T19:32:03.281Z,20.63
2018-12-14T19:34:33.459Z,20.53
2018-12-14T19:37:03.683Z,20.27
2018-12-14T19:39:33.882Z,21.53
2018-12-14T19:42:04.084Z,20.90
2018-12-14T19:44:34.293Z,19.80
2018-12-14T19:47:06.054Z,19.60
2018-12-14T19:49:36.201Z,20.30
2018-12-14T19:52:06.594Z,20.77
2018-12-14T19:54:37.109Z,20.47
2018-12-14T19:57:07.149Z,21.43
2018-12-14T19:59:37.258Z,19.77
2018-12-14T20:02:07.271Z,21.03
2018-12-14T20:04:37.326Z,19.73
2018-12-14T20:07:07.267Z,20.60
2018-12-14T20:09:37.385Z,20.20
2018-12-14T20:12:07.521Z,20.50
2018-12-14T20:14:37.514Z,20.33
2018-12-14T20:17:07.703Z,20.80
2018-12-14T20:19:37.770Z,21.50
2018-12-14T20:22:07.875Z,21.37
2018-12-14T20:24:38.175Z,21.40
2018-12-14T20:27:08.274Z,20.43
2018-12-14T20:29:38.558Z,21.40
2018-12-14T20:32:08.785Z,21.97
2018-12-14T20:34:38.998Z,20.87
2018-12-14T20:37:08.972Z,22.50
2018-12-14T20:39:39.063Z,21.90
2018-12-14T20:42:09.451Z,21.33
2018-12-14T20:44:39.556Z,21.43
2018-12-14T20:47:09.726Z,21.23
2018-12-14T20:49:39.846Z,22.13
2018-12-14T20:52:09.722Z,22.67
2018-12-14T20:54:39.778Z,21.57
2018-12-14T20:57:10.556Z,20.93
2018-12-14T20:59:40.736Z,22.93
2018-12-14T21:02:10.929Z,22.20
2018-12-14T21:04:42.869Z,21.53
2018-12-14T21:07:12.989Z,22.03
2018-12-14T21:09:43.056Z,23.80
2018-12-14T21:12:13.097Z,22.40
2018-12-14T21:14:43.469Z,22.90
2018-12-14T21:17:13.660Z,22.50
2018-12-14T21:19:43.737Z,23.33
2018-12-14T21:22:15.290Z,25.07
2018-12-14T21:24:45.622Z,23.03
2018-12-14T21:27:15.745Z,23.07
2018-12-14T21:29:45.770Z,22.80
2018-12-14T21:32:15.776Z,24.40
2018-12-14T21:34:46.006Z,24.90
2018-12-14T21:37:19.226Z,25.47
2018-12-14T21:42:29.291Z,25.07
2018-12-14T21:45:05.694Z,24.67
2018-12-14T21:47:37.209Z,23.10
2018-12-14T21:50:07.505Z,23.60
2018-12-14T21:52:38.051Z,23.87
2018-12-14T21:55:08.494Z,24.13
2018-12-14T21:57:40.247Z,24.50
2018-12-14T22:00:11.984Z,24.83
2018-12-14T22:02:42.214Z,24.93
2018-12-14T22:05:12.642Z,24.53
2018-12-14T22:07:42.839Z,24.50
2018-12-14T22:10:12.810Z,25.50
2018-12-14T22:12:43.082Z,24.77
2018-12-14T22:15:14.222Z,25.13
2018-12-14T22:17:45.680Z,24.17
2018-12-14T22:20:16.230Z,26.40
2018-12-14T22:25:27.358Z,25.37
2018-12-14T22:27:58.611Z,25.10
2018-12-14T22:30:28.972Z,25.50
2018-12-14T22:32:59.152Z,23.73
2018-12-14T22:35:29.415Z,24.73
2018-12-14T22:38:00.100Z,25.13
2018-12-14T22:40:30.608Z,23.27
2018-12-14T22:43:01.041Z,25.43
2018-12-14T22:45:31.455Z,24.73
2018-12-14T22:48:01.828Z,24.03
2018-12-14T22:50:36.480Z,24.60
2018-12-14T22:53:08.078Z,24.20
2018-12-14T22:55:38.323Z,24.93
2018-12-14T22:58:08.621Z,23.57
2018-12-14T23:00:43.119Z,23.73
2018-12-14T23:03:15.420Z,23.43
2018-12-14T23:05:45.737Z,23.83
2018-12-14T23:08:15.989Z,23.63
2018-12-14T23:10:46.173Z,24.57
2018-12-14T23:13:16.457Z,23.37
2018-12-14T23:15:46.805Z,23.40
2018-12-14T23:18:17.115Z,23.43
2018-12-14T23:20:47.478Z,24.97
2018-12-14T23:23:17.966Z,23.33
2018-12-14T23:25:48.592Z,23.87
2018-12-14T23:28:18.895Z,23.80
2018-12-14T23:30:48.960Z,22.47
2018-12-14T23:33:20.110Z,22.63
2018-12-14T23:35:50.712Z,24.13
2018-12-14T23:38:22.578Z,23.50
2018-12-14T23:40:54.174Z,22.67
2018-12-14T23:43:24.358Z,22.70
2018-12-14T23:45:56.176Z,22.70
2018-12-14T23:48:28.002Z,22.67
2018-12-14T23:50:58.301Z,21.83
2018-12-14T23:53:30.149Z,21.27
2018-12-14T23:56:02.059Z,21.70
2018-12-14T23:58:32.183Z,21.23
